In Rescue
 
Open Full Screen Window  High Contrast Mode
Wind Gusting 00 knots
04
November 28, 2020 12:30 AM EST
Weather Information
Wind Direction
  260 °
Wind Speed
  04 kt (5 mph)
Wind Gust
  00 kt (0 mph)
Altimeter
29.98 in
Visibility
10 SM
Temperature
00° C
32° F
Dewpoint
-02° C
28° F
Humidity
87%
Sky Condition
Scattered @ 5,500 ft
Scattered @ 2,900 ft
VFR

METAR KPZQ 280530Z AUTO 26004KT 10SM SCT029 SCT055 00/M02 A2998 RMK AO2 T00001021

FAA Disclaimer: The data displayed is for advisory purposes only and is not to be used for flight planning or operations.